WetterOnline ( http://www.wetteronline.de )

Wetter aktuell Kiel

Aktuelles Wetter: Dörnick (28m)

6-stündlich | Neueste Meldungen
Ortszeit Temperatur Wetter
Sa, 18.08. 2:00 9.7° C wolkenlos
Fr, 17.08. 20:00 19.7° C wolkenlos
Fr, 17.08. 14:00 17.5° C leichter Regen
Fr, 17.08. 8:00 16.9° C wolkig
Fr, 17.08. 2:00 14.6° C wolkig
Do, 16.08. 20:00 24.7° C wolkig
Do, 16.08. 14:00 24.9° C bedeckt
Do, 16.08. 8:00 17.7° C wolkenlos
Ortszeit Temperatur Wetter
Sa, 18.08. 2:00 9.7° C wolkenlos
Sa, 18.08. 1:40 10.1° C wolkenlos
Sa, 18.08. 1:30 10.8° C wolkenlos
Sa, 18.08. 1:20 10.8° C wolkenlos
Sa, 18.08. 1:10 11.3° C wolkenlos
Sa, 18.08. 1:00 11.8° C fast wolkenlos
Sa, 18.08. 0:50 11.8° C fast wolkenlos
Sa, 18.08. 0:30 13.0° C bewölkt
Sa, 18.08. 0:00 12.4° C bedeckt
Fr, 17.08. 23:30 12.2° C bedeckt
Fr, 17.08. 23:00 13.1° C bedeckt
Fr, 17.08. 22:30 14.3° C bedeckt
Ortszeit Relative Feuchte Sichtweite
Sa, 18.08. 2:00 97% 7 km
Fr, 17.08. 20:00 56% 40 km
Fr, 17.08. 14:00 93% 7 km
Fr, 17.08. 8:00 96% 6 km
Fr, 17.08. 2:00 95% 5.0 km
Do, 16.08. 20:00 56% 15 km
Do, 16.08. 14:00 52% 11 km
Do, 16.08. 8:00 83% 9 km
Ortszeit Relative Feuchte Sichtweite
Sa, 18.08. 2:00 97% 7 km
Sa, 18.08. 1:40 98% -
Sa, 18.08. 1:30 95% 13 km
Sa, 18.08. 1:20 95% -
Sa, 18.08. 1:10 95% -
Sa, 18.08. 1:00 92% 20 km
Sa, 18.08. 0:50 92% -
Sa, 18.08. 0:30 89% 23 km
Sa, 18.08. 0:00 94% 20 km
Fr, 17.08. 23:30 93% 24 km
Fr, 17.08. 23:00 88% 24 km
Fr, 17.08. 22:30 82% 27 km
Ortszeit Niederschlagsmenge Niederschlagsart
Sa, 18.08. 2:00 0.0 l/m2 in 6 Std. -
Fr, 17.08. 20:00 4 l/m2 in 12 Std. Regen
Fr, 17.08. 14:00 3 l/m2 in 6 Std. Regen
Fr, 17.08. 8:00 0.0 l/m2 in 12 Std. -
Fr, 17.08. 2:00 0.0 l/m2 in 6 Std. -
Do, 16.08. 20:00 0.0 l/m2 in 12 Std. -
Do, 16.08. 14:00 0.0 l/m2 in 6 Std. -
Do, 16.08. 8:00 0.0 l/m2 in 12 Std. -
Ortszeit Niederschlagsmenge Niederschlagsart
Sa, 18.08. 2:00 0.0 l/m2 in 1 Std. -
Sa, 18.08. 1:40 keine Meldung -
Sa, 18.08. 1:30 0.0 l/m2 in 1 Std. -
Sa, 18.08. 1:20 keine Meldung -
Sa, 18.08. 1:10 keine Meldung -
Sa, 18.08. 1:00 0.0 l/m2 in 1 Std. -
Sa, 18.08. 0:50 keine Meldung -
Sa, 18.08. 0:30 0.0 l/m2 in 1 Std. -
Sa, 18.08. 0:00 0.0 l/m2 in 1 Std. -
Fr, 17.08. 23:30 0.0 l/m2 in 1 Std. -
Fr, 17.08. 23:00 0.0 l/m2 in 1 Std. -
Fr, 17.08. 22:30 0.0 l/m2 in 1 Std. -
Ortszeit Stärke Spitze Richtung
km/h Bft. km/h Grad Sektor
Sa, 18.08. 2:00 0 0 14 - -
Fr, 17.08. 20:00 9 2 28 300° NW
Fr, 17.08. 14:00 7 2 24 240° SW
Fr, 17.08. 8:00 2 1 9 350° N
Fr, 17.08. 2:00 4 1 14 250° W
Do, 16.08. 20:00 11 2 32 280° W
Do, 16.08. 14:00 26 4 41 190° S
Do, 16.08. 8:00 7 2 14 160° S
Ortszeit Stärke Spitze Richtung
km/h Bft. km/h Grad Sektor
Sa, 18.08. 2:00 0 0 7 - -
Sa, 18.08. 1:40 2 1 - 290° W
Sa, 18.08. 1:30 4 1 7 270° W
Sa, 18.08. 1:20 4 1 - 270° W
Sa, 18.08. 1:10 6 1 - 270° W
Sa, 18.08. 1:00 6 1 7 270° W
Sa, 18.08. 0:50 6 1 - 270° W
Sa, 18.08. 0:30 6 1 6 280° W
Sa, 18.08. 0:00 6 1 7 260° W
Fr, 17.08. 23:30 6 1 7 270° W
Fr, 17.08. 23:00 6 1 9 280° W
Fr, 17.08. 22:30 7 2 7 290° W
Ortszeit Untergrenze Bedeckung Gattung
total tief tief mittel hoch
Sa, 18.08. 2:00 - 0/8 0/8 - - -
Fr, 17.08. 20:00 - 0/8 0/8 - - -
Fr, 17.08. 14:00 360 m 8/8 8/8 - - -
Fr, 17.08. 8:00 2400 m 6/8 6/8 - - -
Fr, 17.08. 2:00 9000 m 7/8 0/8 - - -
Do, 16.08. 20:00 10500 m 8/8 0/8 - - -
Do, 16.08. 14:00 1380 m 8/8 8/8 - - -
Do, 16.08. 8:00 1500 m 0/8 0/8 - - -
Ortszeit Bedeckungsgrad in Achtel und Wolkenuntergrenze
Sa, 18.08. 2:00 keine Wolken
Sa, 18.08. 1:40 keine Wolken
Sa, 18.08. 1:30 keine Wolken
Sa, 18.08. 1:20 keine Wolken
Sa, 18.08. 1:10 keine Wolken
Sa, 18.08. 1:00 1(6300m)
Sa, 18.08. 0:50 1(6300m)
Sa, 18.08. 0:30 4(5700m) 8(7500m) 8(9000m)
Sa, 18.08. 0:00 6(5700m) 8(6600m) 8(7800m)
Fr, 17.08. 23:30 8(6300m) 8(9000m)
Fr, 17.08. 23:00 6(6300m) 8(6900m) 8(8100m)
Fr, 17.08. 22:30 8(6900m) 8(7500m) 8(8400m)
Ortszeit Luftdruck NN (hPa) Tendenz (hPa in 3 Std.)
Sa, 18.08. 2:00 1020 + 0,8
Fr, 17.08. 20:00 1018 + 0,3
Fr, 17.08. 14:00 1018 + 1,0
Fr, 17.08. 8:00 1016 + 1,0
Fr, 17.08. 2:00 1015 + 0,7
Do, 16.08. 20:00 1013 - 0,2
Do, 16.08. 14:00 1015 - 1,1
Do, 16.08. 8:00 1017 - 0,4
Ortszeit Luftdruck NN (hPa) Tendenz (hPa in 3 Std.)
Sa, 18.08. 2:00 1020 + 0,8
Sa, 18.08. 1:40 1020 keine Meldung
Sa, 18.08. 1:30 1020 + 0,8
Sa, 18.08. 1:20 1020 keine Meldung
Sa, 18.08. 1:10 1020 keine Meldung
Sa, 18.08. 1:00 1020 + 1,1
Sa, 18.08. 0:50 1020 keine Meldung
Sa, 18.08. 0:30 1020 + 1,1
Sa, 18.08. 0:00 1020 + 1,3
Fr, 17.08. 23:30 1020 + 1,3
Fr, 17.08. 23:00 1019 + 1,2
Fr, 17.08. 22:30 1019 + 1,2
Ortszeit Schneehöhe (cm)
Sa, 18.08. 2:00 -
Fr, 17.08. 20:00 -
Fr, 17.08. 14:00 -
Fr, 17.08. 8:00 -
Fr, 17.08. 2:00 -
Do, 16.08. 20:00 -
Do, 16.08. 14:00 -
Do, 16.08. 8:00 -
Ortszeit Schneehöhe (cm)
Sa, 18.08. 2:00 -
Sa, 18.08. 1:40 -
Sa, 18.08. 1:30 -
Sa, 18.08. 1:20 -
Sa, 18.08. 1:10 -
Sa, 18.08. 1:00 -
Sa, 18.08. 0:50 -
Sa, 18.08. 0:30 -
Sa, 18.08. 0:00 -
Fr, 17.08. 23:30 -
Fr, 17.08. 23:00 -
Fr, 17.08. 22:30 -
Link zu dieser Seite / Seite empfehlen

Das Wetter in ...